Sti Osceola — V7IW3 — position and weather

sailwx.info

Track history (hours):
 
Tides and Currents Weather Stations Pressure Air Temp Water Temp Dewpoint Dewpoint Depression Visibility Wind Speed Wind Dir Waves Ship Positions

Sti Osceola

Last reported at 2017-Dec-03 03:15 UTC. Time now 2017-Dec-14 08:08 UTC.
Position N 49°46' W 005°14'.
Warning: this ship's position is 11 days out of date.

Length 184 m; draft 11.4 m.

Type: Tanker. MMSI: 538006005.

Date/timePositionNaut miles runAvg speedWind from/ knotsBaromVisibWave heightAir tempDewpointWater temp
2017-Dec-03 03:15N 49°46' W 005°14'2712.1
2017-Dec-03 01:01N 49°51' W 004°32'113.3
2017-Dec-03 00:54N 49°52' W 004°30'713.5
2017-Dec-03 00:25N 49°53' W 004°20'613.7
2017-Dec-03 00:00N 49°54' W 004°12'814.2
2017-Dec-02 23:26N 49°56' W 003°59'614.5
2017-Dec-02 23:00N 49°57' W 003°50'714.6
2017-Dec-02 22:31N 49°59' W 003°39'714.4
2017-Dec-02 22:00N 50°03' W 003°29'714.0
2017-Dec-02 21:30N 50°06' W 003°20'713.4
2017-Dec-02 21:01N 50°10' W 003°11'612.8
2017-Dec-02 20:31N 50°13' W 003°02'612.2
2017-Dec-02 20:00N 50°16' W 002°54'611.7
2017-Dec-02 19:30N 50°19' W 002°46'611.4
2017-Dec-02 19:01N 50°22' W 002°38'611.1
2017-Dec-02 18:31N 50°25' W 002°31'510.3
2017-Dec-02 18:01N 50°27' W 002°24'6 8.0
2017-Dec-02 17:18N 50°32' W 002°19'311.3
2017-Dec-02 17:00N 50°34' W 002°23'1 0.4
2017-Dec-02 13:56N 50°35' W 002°24'0 0.1
2017-Dec-02 13:13N 50°35' W 002°24'0 0.2
2017-Dec-02 12:53N 50°35' W 002°24'1 3.1
2017-Dec-02 12:30N 50°35' W 002°23'4 7.3
2017-Dec-02 12:00N 50°32' W 002°18'1012.1
2017-Dec-02 11:13N 50°29' W 002°04'315.0
2017-Dec-02 11:00N 50°28' W 001°59'714.9
2017-Dec-02 10:30N 50°26' W 001°48'1813.4
2017-Dec-02 09:10N 50°21' W 001°21'4310.5
2017-Dec-02 05:07N 50°27' W 000°15'112.3
2017-Dec-02 05:00N 50°28' W 000°13'612.8
2017-Dec-02 04:30N 50°29' W 000°03'713.4
2017-Dec-02 04:00N 50°31' E 000°07'714.0
2017-Dec-02 03:30N 50°33' E 000°17'714.5
2017-Dec-02 03:00N 50°35' E 000°28'714.5
2017-Dec-02 02:31N 50°38' E 000°39'714.4
2017-Dec-02 02:01N 50°42' E 000°48'714.0
2017-Dec-02 01:30N 50°46' E 000°58'713.5
2017-Dec-02 01:01N 50°50' E 001°06'812.8
2017-Dec-02 00:24N 50°54' E 001°17'512.0
2017-Dec-01 23:57N 50°58' E 001°22'511.5
2017-Dec-01 23:30N 51°02' E 001°27'510.6
2017-Dec-01 23:01N 51°07' E 001°32'510.6
2017-Dec-01 22:30N 51°10' E 001°39'511.0
2017-Dec-01 22:00N 51°13' E 001°46'1529.5
2017-Dec-01 21:30N 51°27' E 001°56'3 5.1
2017-Dec-01 21:01N 51°24' E 001°54'713.5
2017-Dec-01 20:30N 51°29' E 002°01'714.2
2017-Dec-01 20:00N 51°35' E 002°10'39512.4
2017-Nov-30 12:03N 57°17' E 007°50'112.5
2017-Nov-30 12:00N 57°17' E 007°50'612.4
2017-Nov-30 11:30N 57°22' E 007°59'612.7
2017-Nov-30 10:59N 57°26' E 008°07'612.4
2017-Nov-30 10:29N 57°30' E 008°16'612.8
2017-Nov-30 10:00N 57°32' E 008°27'712.7
2017-Nov-30 09:29N 57°34' E 008°38'6012.7
2017-Nov-30 04:47N 57°48' E 010°27'312.3
2017-Nov-30 04:30N 57°48' E 010°33'611.9
2017-Nov-30 04:00N 57°47' E 010°44'611.2
2017-Nov-30 03:30N 57°44' E 010°53'612.2
2017-Nov-30 03:00N 57°40' E 011°01'612.5
2017-Nov-30 02:30N 57°36' E 011°10'612.6
2017-Nov-30 02:00N 57°31' E 011°19'612.3
2017-Nov-30 01:30N 57°27' E 011°26'612.6
2017-Nov-30 01:00N 57°21' E 011°30'612.7
2017-Nov-30 00:30N 57°15' E 011°34'612.7
2017-Nov-30 00:00N 57°09' E 011°38'612.9
2017-Nov-29 23:30N 57°03' E 011°42'11111.8
2017-Nov-29 14:04N 55°14' E 011°06'212.7
2017-Nov-29 13:55N 55°12' E 011°06'512.6
2017-Nov-29 13:30N 55°08' E 010°60'613.0
2017-Nov-29 13:00N 55°01' E 010°60'612.3
2017-Nov-29 12:30N 54°56' E 010°54'612.5
2017-Nov-29 12:00N 54°50' E 010°50'612.4
2017-Nov-29 11:30N 54°45' E 010°47'510.7
2017-Nov-29 11:00N 54°40' E 010°50'612.4
2017-Nov-29 10:30N 54°36' E 010°59'612.4
2017-Nov-29 10:00N 54°36' E 011°10'612.2
2017-Nov-29 09:30N 54°33' E 011°20'612.5
2017-Nov-29 09:00N 54°30' E 011°29'612.8
2017-Nov-29 08:30N 54°28' E 011°39'612.7
2017-Nov-29 08:00N 54°26' E 011°50'8411.4
2017-Nov-29 00:39N 55°04' E 014°00'411.6
2017-Nov-29 00:21N 55°05' E 014°06'512.2
2017-Nov-28 23:56N 55°09' E 014°12'812.1
2017-Nov-28 23:19N 55°15' E 014°20'411.7
2017-Nov-28 23:00N 55°18' E 014°24'611.6
2017-Nov-28 22:30N 55°22' E 014°30'611.4
2017-Nov-28 22:00N 55°27' E 014°37'611.2
2017-Nov-28 21:30N 55°30' E 014°45'711.2
2017-Nov-28 20:55N 55°33' E 014°55'511.3
2017-Nov-28 20:30N 55°35' E 015°03'611.2
2017-Nov-28 19:59N 55°36' E 015°13'611.3
2017-Nov-28 19:29N 55°39' E 015°22'610.9
2017-Nov-28 18:54N 55°41' E 015°32'411.2
2017-Nov-28 18:30N 55°41' E 015°40'510.9
2017-Nov-28 18:00N 55°43' E 015°49'511.0
2017-Nov-28 17:30N 55°44' E 015°59'611.1
2017-Nov-28 17:00N 55°45' E 016°08'611.3
2017-Nov-28 16:30N 55°47' E 016°18'611.2
2017-Nov-28 16:00N 55°48' E 016°28'315 6.1
2017-Nov-26 12:10N 59°36' E 023°16'212.3
2017-Nov-26 12:00N 59°36' E 023°20'712.4
2017-Nov-26 11:29N 59°38' E 023°32'612.4
2017-Nov-26 11:00N 59°40' E 023°43'612.1
2017-Nov-26 10:30N 59°41' E 023°55'712.0
2017-Nov-26 09:56N 59°43' E 024°08'512.2
2017-Nov-26 09:31N 59°45' E 024°18'611.8
2017-Nov-26 09:01N 59°45' E 024°30'612.0
2017-Nov-26 08:30N 59°41' E 024°39'713.4
2017-Nov-26 08:00N 59°37' E 024°48'2 3.4
2017-Nov-26 07:30N 59°35' E 024°50'0 0.2
2017-Nov-26 06:58N 59°35' E 024°49'0 0.0
2017-Nov-26 06:29N 59°35' E 024°49'0 0.0
2017-Nov-26 05:58N 59°35' E 024°49'0 0.0
2017-Nov-26 05:28N 59°35' E 024°49'0 0.0
2017-Nov-26 04:58N 59°35' E 024°49'0 0.0
2017-Nov-26 04:28N 59°35' E 024°49'0 0.0
2017-Nov-26 03:58N 59°35' E 024°49'0 0.1
2017-Nov-26 03:28N 59°35' E 024°49'0 0.0
2017-Nov-26 03:01N 59°35' E 024°49'1 2.7
2017-Nov-26 02:31N 59°37' E 024°49'4 8.4
2017-Nov-26 02:01N 59°41' E 024°48'612.1
2017-Nov-26 01:31N 59°47' E 024°50'611.1
2017-Nov-26 01:01N 59°51' E 024°58'713.1
2017-Nov-26 00:30N 59°52' E 025°11'712.8
2017-Nov-25 23:59N 59°53' E 025°24'613.1
2017-Nov-25 23:30N 59°54' E 025°37'1813.8
2017-Nov-25 22:10N 59°58' E 026°12'211.6
2017-Nov-25 22:00N 59°59' E 026°16'612.5
2017-Nov-25 21:31N 60°01' E 026°28'611.5
2017-Nov-25 21:00N 60°01' E 026°39'612.9
2017-Nov-25 20:31N 60°00' E 026°52'612.6
2017-Nov-25 20:01N 59°60' E 027°05'612.6
2017-Nov-25 19:30N 60°03' E 027°15'612.7
2017-Nov-25 19:01N 60°06' E 027°26'612.6
2017-Nov-25 18:30N 60°10' E 027°37'612.1
2017-Nov-25 18:01N 60°12' E 027°48'612.9
2017-Nov-25 17:31N 60°10' E 028°01'612.9
2017-Nov-25 17:01N 60°09' E 028°13'612.5
2017-Nov-25 16:31N 60°05' E 028°24'612.4
2017-Nov-25 16:01N 60°02' E 028°35'611.7
2017-Nov-25 15:31N 59°56' E 028°35'4 7.5
2017-Nov-25 15:00N 59°53' E 028°30'611.1
2017-Nov-25 14:30N 59°48' E 028°25'5 9.5
2017-Nov-25 14:00N 59°44' E 028°25'2 2.5
2017-Nov-25 13:19N 59°42' E 028°26'0 0.0
2017-Nov-25 12:46N 59°42' E 028°26'0 0.0
2017-Nov-25 12:22N 59°42' E 028°26'0 0.0
2017-Nov-25 11:52N 59°42' E 028°26'0 0.0
2017-Nov-25 11:22N 59°42' E 028°26'0 0.0
2017-Nov-25 10:52N 59°42' E 028°26'0 0.0
2017-Nov-25 10:19N 59°42' E 028°26'0 0.0
2017-Nov-25 09:52N 59°42' E 028°26'0 0.0
2017-Nov-25 09:22N 59°42' E 028°26'0 0.0
2017-Nov-25 08:55N 59°42' E 028°26'0 0.0
2017-Nov-25 08:25N 59°42' E 028°26'0 0.0
2017-Nov-25 07:55N 59°42' E 028°26'0 0.0
2017-Nov-25 07:25N 59°42' E 028°26'0 0.0
2017-Nov-25 06:58N 59°42' E 028°26'0 0.0
2017-Nov-25 06:25N 59°42' E 028°26'0 0.0
2017-Nov-25 05:58N 59°42' E 028°26'0 0.0
2017-Nov-25 05:28N 59°42' E 028°26'0 0.0
2017-Nov-25 04:58N 59°42' E 028°26'0 0.0
2017-Nov-25 04:28N 59°42' E 028°26'0 0.0
2017-Nov-25 03:58N 59°42' E 028°26'0 0.0
2017-Nov-25 03:28N 59°42' E 028°26'0 0.0
2017-Nov-25 02:58N 59°42' E 028°26'0 0.0
2017-Nov-25 02:25N 59°42' E 028°26'0 0.0
2017-Nov-25 01:58N 59°42' E 028°26'0 0.0
2017-Nov-25 01:25N 59°42' E 028°26'0 0.0
2017-Nov-25 00:46N 59°42' E 028°26'0 0.0
2017-Nov-25 00:28N 59°42' E 028°26'0 0.0
2017-Nov-24 23:58N 59°42' E 028°26'0 0.0
2017-Nov-24 23:28N 59°42' E 028°26'0 0.0
2017-Nov-24 22:58N 59°42' E 028°26'0 0.0
2017-Nov-24 22:28N 59°42' E 028°26'0 0.0
2017-Nov-24 21:43N 59°42' E 028°26'0 0.0
2017-Nov-24 21:19N 59°42' E 028°26'0 0.0
2017-Nov-24 20:49N 59°42' E 028°26'0 0.0
2017-Nov-24 20:22N 59°42' E 028°26'0 0.0
2017-Nov-24 19:52N 59°42' E 028°26'0 0.0
2017-Nov-24 19:19N 59°42' E 028°26'0 0.0
2017-Nov-24 18:52N 59°42' E 028°26'0 0.0
2017-Nov-24 18:22N 59°42' E 028°26'0 0.0
2017-Nov-24 17:52N 59°42' E 028°26'0 0.0
2017-Nov-24 17:25N 59°42' E 028°26'0 0.0
2017-Nov-24 16:55N 59°42' E 028°26'0 0.0
2017-Nov-24 16:25N 59°42' E 028°26'0 0.0
2017-Nov-24 15:55N 59°42' E 028°26'0 0.0
2017-Nov-24 15:22N 59°42' E 028°26'0 0.0
2017-Nov-24 14:55N 59°42' E 028°26'0 0.0
2017-Nov-24 14:28N 59°42' E 028°26'0 0.0
2017-Nov-24 13:58N 59°42' E 028°26'0 0.0
2017-Nov-24 13:25N 59°42' E 028°26'0 0.0
2017-Nov-24 12:58N 59°42' E 028°26'0 0.0
2017-Nov-24 12:28N 59°42' E 028°26'0 0.0
2017-Nov-24 12:00N 59°42' E 028°26'1 1.4
2017-Nov-24 11:30N 59°42' E 028°24'3 5.5
2017-Nov-24 11:00N 59°44' E 028°24'510.5
2017-Nov-24 10:30N 59°50' E 028°25'510.7
2017-Nov-24 10:01N 59°54' E 028°32'3 5.2
2017-Nov-24 09:30N 59°54' E 028°37'0 0.0
2017-Nov-24 08:58N 59°54' E 028°37'0 0.1
2017-Nov-24 08:28N 59°54' E 028°37'0 0.1
2017-Nov-24 07:58N 59°54' E 028°37'0 0.1
2017-Nov-24 07:28N 59°54' E 028°37'0 0.1
2017-Nov-24 06:58N 59°54' E 028°37'0 0.1
2017-Nov-24 06:28N 59°54' E 028°37'0 0.0
2017-Nov-24 05:58N 59°54' E 028°37'0 0.1
2017-Nov-24 05:28N 59°54' E 028°37'0 0.0
2017-Nov-24 04:49N 59°54' E 028°37'0 0.0
2017-Nov-24 04:28N 59°54' E 028°37'0 0.1
2017-Nov-24 03:49N 59°54' E 028°37'0 0.1
2017-Nov-24 03:22N 59°54' E 028°37'0 0.0
2017-Nov-24 02:52N 59°54' E 028°37'0 0.1
2017-Nov-24 02:27N 59°54' E 028°37'0 0.0
2017-Nov-24 01:52N 59°54' E 028°37'0 0.1
2017-Nov-24 01:22N 59°54' E 028°37'0 0.0
2017-Nov-24 00:55N 59°54' E 028°37'0 0.0
2017-Nov-24 00:25N 59°54' E 028°37'0 0.0
2017-Nov-23 23:52N 59°54' E 028°37'0 0.1
2017-Nov-23 23:22N 59°54' E 028°37'0 0.1
2017-Nov-23 22:55N 59°54' E 028°37'0 0.0
2017-Nov-23 22:25N 59°54' E 028°37'0 0.0
2017-Nov-23 21:55N 59°54' E 028°37'0 0.1
2017-Nov-23 21:28N 59°54' E 028°37'0 0.0
2017-Nov-23 20:55N 59°54' E 028°37'0 0.1
2017-Nov-23 20:28N 59°54' E 028°37'0 0.0
2017-Nov-23 19:58N 59°54' E 028°37'0 0.1
2017-Nov-23 19:28N 59°54' E 028°37'0 0.1
2017-Nov-23 18:58N 59°54' E 028°37'0 0.1
2017-Nov-23 18:28N 59°54' E 028°37'0 0.0
2017-Nov-23 17:55N 59°54' E 028°37'0 0.1
2017-Nov-23 17:28N 59°54' E 028°37'0 0.0
2017-Nov-23 16:58N 59°54' E 028°37'0 0.0
2017-Nov-23 16:16N 59°54' E 028°37'0 0.0
2017-Nov-23 15:58N 59°54' E 028°37'0 0.1
2017-Nov-23 15:28N 59°54' E 028°37'0 0.0
2017-Nov-23 14:58N 59°54' E 028°37'0 0.0
2017-Nov-23 14:16N 59°54' E 028°37'0 0.0
2017-Nov-23 13:49N 59°54' E 028°37'0 0.0
2017-Nov-23 13:19N 59°54' E 028°37'0 0.0
2017-Nov-23 13:01N 59°54' E 028°37'0 0.0
2017-Nov-23 12:31N 59°54' E 028°37'0 0.0
2017-Nov-23 11:58N 59°54' E 028°37'0 0.0
2017-Nov-23 11:21N 59°54' E 028°37'0 0.0
2017-Nov-23 10:52N 59°54' E 028°37'0 0.1
2017-Nov-23 10:28N 59°54' E 028°37'0 0.0
2017-Nov-23 09:52N 59°54' E 028°37'0 0.0
2017-Nov-23 09:22N 59°54' E 028°37'0 0.0
2017-Nov-23 08:55N 59°54' E 028°37'0 0.0
2017-Nov-23 08:25N 59°54' E 028°37'0 0.0
2017-Nov-23 07:55N 59°54' E 028°37'0 0.0
2017-Nov-23 07:25N 59°54' E 028°37'0 0.0
2017-Nov-23 06:55N 59°54' E 028°37'0 0.0
2017-Nov-23 06:25N 59°54' E 028°37'0 0.0
2017-Nov-23 05:58N 59°54' E 028°37'0 0.0
2017-Nov-23 05:25N 59°54' E 028°37'0 0.0
2017-Nov-23 04:57N 59°54' E 028°37'0 0.0
2017-Nov-23 04:30N 59°54' E 028°37'0 0.0
2017-Nov-23 03:58N 59°54' E 028°37'0 0.0
2017-Nov-23 03:25N 59°54' E 028°37'  
Track history (hours):
 
Tides and Currents Weather Stations Pressure Air Temp Water Temp Dewpoint Dewpoint Depression Visibility Wind Speed Wind Dir Waves Ship Positions

Sti Osceola

Last reported at 2017-Dec-03 03:15 UTC. Time now 2017-Dec-14 08:08 UTC.
Position N 49°46' W 005°14'.
Warning: this ship's position is 11 days out of date.

Length 184 m; draft 11.4 m.

Type: Tanker. MMSI: 538006005.

Date/timePositionNaut miles runAvg speedWind from/ knotsBaromVisibWave heightAir tempDewpointWater temp
2017-Dec-03 03:15N 49°46' W 005°14'2712.1
2017-Dec-03 01:01N 49°51' W 004°32'113.3
2017-Dec-03 00:54N 49°52' W 004°30'713.5
2017-Dec-03 00:25N 49°53' W 004°20'613.7
2017-Dec-03 00:00N 49°54' W 004°12'814.2
2017-Dec-02 23:26N 49°56' W 003°59'614.5
2017-Dec-02 23:00N 49°57' W 003°50'714.6
2017-Dec-02 22:31N 49°59' W 003°39'714.4
2017-Dec-02 22:00N 50°03' W 003°29'714.0
2017-Dec-02 21:30N 50°06' W 003°20'713.4
2017-Dec-02 21:01N 50°10' W 003°11'612.8
2017-Dec-02 20:31N 50°13' W 003°02'612.2
2017-Dec-02 20:00N 50°16' W 002°54'611.7
2017-Dec-02 19:30N 50°19' W 002°46'611.4
2017-Dec-02 19:01N 50°22' W 002°38'611.1
2017-Dec-02 18:31N 50°25' W 002°31'510.3
2017-Dec-02 18:01N 50°27' W 002°24'6 8.0
2017-Dec-02 17:18N 50°32' W 002°19'311.3
2017-Dec-02 17:00N 50°34' W 002°23'1 0.4
2017-Dec-02 13:56N 50°35' W 002°24'0 0.1
2017-Dec-02 13:13N 50°35' W 002°24'0 0.2
2017-Dec-02 12:53N 50°35' W 002°24'1 3.1
2017-Dec-02 12:30N 50°35' W 002°23'4 7.3
2017-Dec-02 12:00N 50°32' W 002°18'1012.1
2017-Dec-02 11:13N 50°29' W 002°04'315.0
2017-Dec-02 11:00N 50°28' W 001°59'714.9
2017-Dec-02 10:30N 50°26' W 001°48'1813.4
2017-Dec-02 09:10N 50°21' W 001°21'4310.5
2017-Dec-02 05:07N 50°27' W 000°15'112.3
2017-Dec-02 05:00N 50°28' W 000°13'612.8
2017-Dec-02 04:30N 50°29' W 000°03'713.4
2017-Dec-02 04:00N 50°31' E 000°07'714.0
2017-Dec-02 03:30N 50°33' E 000°17'714.5
2017-Dec-02 03:00N 50°35' E 000°28'714.5
2017-Dec-02 02:31N 50°38' E 000°39'714.4
2017-Dec-02 02:01N 50°42' E 000°48'714.0
2017-Dec-02 01:30N 50°46' E 000°58'713.5
2017-Dec-02 01:01N 50°50' E 001°06'812.8
2017-Dec-02 00:24N 50°54' E 001°17'512.0
2017-Dec-01 23:57N 50°58' E 001°22'511.5
2017-Dec-01 23:30N 51°02' E 001°27'510.6
2017-Dec-01 23:01N 51°07' E 001°32'510.6
2017-Dec-01 22:30N 51°10' E 001°39'511.0
2017-Dec-01 22:00N 51°13' E 001°46'1529.5
2017-Dec-01 21:30N 51°27' E 001°56'3 5.1
2017-Dec-01 21:01N 51°24' E 001°54'713.5
2017-Dec-01 20:30N 51°29' E 002°01'714.2
2017-Dec-01 20:00N 51°35' E 002°10'39512.4
2017-Nov-30 12:03N 57°17' E 007°50'112.5
2017-Nov-30 12:00N 57°17' E 007°50'612.4
2017-Nov-30 11:30N 57°22' E 007°59'612.7
2017-Nov-30 10:59N 57°26' E 008°07'612.4
2017-Nov-30 10:29N 57°30' E 008°16'612.8
2017-Nov-30 10:00N 57°32' E 008°27'712.7
2017-Nov-30 09:29N 57°34' E 008°38'6012.7
2017-Nov-30 04:47N 57°48' E 010°27'312.3
2017-Nov-30 04:30N 57°48' E 010°33'611.9
2017-Nov-30 04:00N 57°47' E 010°44'611.2
2017-Nov-30 03:30N 57°44' E 010°53'612.2
2017-Nov-30 03:00N 57°40' E 011°01'612.5
2017-Nov-30 02:30N 57°36' E 011°10'612.6
2017-Nov-30 02:00N 57°31' E 011°19'612.3
2017-Nov-30 01:30N 57°27' E 011°26'612.6
2017-Nov-30 01:00N 57°21' E 011°30'612.7
2017-Nov-30 00:30N 57°15' E 011°34'612.7
2017-Nov-30 00:00N 57°09' E 011°38'612.9
2017-Nov-29 23:30N 57°03' E 011°42'11111.8
2017-Nov-29 14:04N 55°14' E 011°06'212.7
2017-Nov-29 13:55N 55°12' E 011°06'512.6
2017-Nov-29 13:30N 55°08' E 010°60'613.0
2017-Nov-29 13:00N 55°01' E 010°60'612.3
2017-Nov-29 12:30N 54°56' E 010°54'612.5
2017-Nov-29 12:00N 54°50' E 010°50'612.4
2017-Nov-29 11:30N 54°45' E 010°47'510.7
2017-Nov-29 11:00N 54°40' E 010°50'612.4
2017-Nov-29 10:30N 54°36' E 010°59'612.4
2017-Nov-29 10:00N 54°36' E 011°10'612.2
2017-Nov-29 09:30N 54°33' E 011°20'612.5
2017-Nov-29 09:00N 54°30' E 011°29'612.8
2017-Nov-29 08:30N 54°28' E 011°39'612.7
2017-Nov-29 08:00N 54°26' E 011°50'8411.4
2017-Nov-29 00:39N 55°04' E 014°00'411.6
2017-Nov-29 00:21N 55°05' E 014°06'512.2
2017-Nov-28 23:56N 55°09' E 014°12'812.1
2017-Nov-28 23:19N 55°15' E 014°20'411.7
2017-Nov-28 23:00N 55°18' E 014°24'611.6
2017-Nov-28 22:30N 55°22' E 014°30'611.4
2017-Nov-28 22:00N 55°27' E 014°37'611.2
2017-Nov-28 21:30N 55°30' E 014°45'711.2
2017-Nov-28 20:55N 55°33' E 014°55'511.3
2017-Nov-28 20:30N 55°35' E 015°03'611.2
2017-Nov-28 19:59N 55°36' E 015°13'611.3
2017-Nov-28 19:29N 55°39' E 015°22'610.9
2017-Nov-28 18:54N 55°41' E 015°32'411.2
2017-Nov-28 18:30N 55°41' E 015°40'510.9
2017-Nov-28 18:00N 55°43' E 015°49'511.0
2017-Nov-28 17:30N 55°44' E 015°59'611.1
2017-Nov-28 17:00N 55°45' E 016°08'611.3
2017-Nov-28 16:30N 55°47' E 016°18'611.2
2017-Nov-28 16:00N 55°48' E 016°28'315 6.1
2017-Nov-26 12:10N 59°36' E 023°16'212.3
2017-Nov-26 12:00N 59°36' E 023°20'712.4
2017-Nov-26 11:29N 59°38' E 023°32'612.4
2017-Nov-26 11:00N 59°40' E 023°43'612.1
2017-Nov-26 10:30N 59°41' E 023°55'712.0
2017-Nov-26 09:56N 59°43' E 024°08'512.2
2017-Nov-26 09:31N 59°45' E 024°18'611.8
2017-Nov-26 09:01N 59°45' E 024°30'612.0
2017-Nov-26 08:30N 59°41' E 024°39'713.4
2017-Nov-26 08:00N 59°37' E 024°48'2 3.4
2017-Nov-26 07:30N 59°35' E 024°50'0 0.2
2017-Nov-26 06:58N 59°35' E 024°49'0 0.0
2017-Nov-26 06:29N 59°35' E 024°49'0 0.0
2017-Nov-26 05:58N 59°35' E 024°49'0 0.0
2017-Nov-26 05:28N 59°35' E 024°49'0 0.0
2017-Nov-26 04:58N 59°35' E 024°49'0 0.0
2017-Nov-26 04:28N 59°35' E 024°49'0 0.0
2017-Nov-26 03:58N 59°35' E 024°49'0 0.1
2017-Nov-26 03:28N 59°35' E 024°49'0 0.0
2017-Nov-26 03:01N 59°35' E 024°49'1 2.7
2017-Nov-26 02:31N 59°37' E 024°49'4 8.4
2017-Nov-26 02:01N 59°41' E 024°48'612.1
2017-Nov-26 01:31N 59°47' E 024°50'611.1
2017-Nov-26 01:01N 59°51' E 024°58'713.1
2017-Nov-26 00:30N 59°52' E 025°11'712.8
2017-Nov-25 23:59N 59°53' E 025°24'613.1
2017-Nov-25 23:30N 59°54' E 025°37'1813.8
2017-Nov-25 22:10N 59°58' E 026°12'211.6
2017-Nov-25 22:00N 59°59' E 026°16'612.5
2017-Nov-25 21:31N 60°01' E 026°28'611.5
2017-Nov-25 21:00N 60°01' E 026°39'612.9
2017-Nov-25 20:31N 60°00' E 026°52'612.6
2017-Nov-25 20:01N 59°60' E 027°05'612.6
2017-Nov-25 19:30N 60°03' E 027°15'612.7
2017-Nov-25 19:01N 60°06' E 027°26'612.6
2017-Nov-25 18:30N 60°10' E 027°37'612.1
2017-Nov-25 18:01N 60°12' E 027°48'612.9
2017-Nov-25 17:31N 60°10' E 028°01'612.9
2017-Nov-25 17:01N 60°09' E 028°13'612.5
2017-Nov-25 16:31N 60°05' E 028°24'612.4
2017-Nov-25 16:01N 60°02' E 028°35'611.7
2017-Nov-25 15:31N 59°56' E 028°35'4 7.5
2017-Nov-25 15:00N 59°53' E 028°30'611.1
2017-Nov-25 14:30N 59°48' E 028°25'5 9.5
2017-Nov-25 14:00N 59°44' E 028°25'2 2.5
2017-Nov-25 13:19N 59°42' E 028°26'0 0.0
2017-Nov-25 12:46N 59°42' E 028°26'0 0.0
2017-Nov-25 12:22N 59°42' E 028°26'0 0.0
2017-Nov-25 11:52N 59°42' E 028°26'0 0.0
2017-Nov-25 11:22N 59°42' E 028°26'0 0.0
2017-Nov-25 10:52N 59°42' E 028°26'0 0.0
2017-Nov-25 10:19N 59°42' E 028°26'0 0.0
2017-Nov-25 09:52N 59°42' E 028°26'0 0.0
2017-Nov-25 09:22N 59°42' E 028°26'0 0.0
2017-Nov-25 08:55N 59°42' E 028°26'0 0.0
2017-Nov-25 08:25N 59°42' E 028°26'0 0.0
2017-Nov-25 07:55N 59°42' E 028°26'0 0.0
2017-Nov-25 07:25N 59°42' E 028°26'0 0.0
2017-Nov-25 06:58N 59°42' E 028°26'0 0.0
2017-Nov-25 06:25N 59°42' E 028°26'0 0.0
2017-Nov-25 05:58N 59°42' E 028°26'0 0.0
2017-Nov-25 05:28N 59°42' E 028°26'0 0.0
2017-Nov-25 04:58N 59°42' E 028°26'0 0.0
2017-Nov-25 04:28N 59°42' E 028°26'0 0.0
2017-Nov-25 03:58N 59°42' E 028°26'0 0.0
2017-Nov-25 03:28N 59°42' E 028°26'0 0.0
2017-Nov-25 02:58N 59°42' E 028°26'0 0.0
2017-Nov-25 02:25N 59°42' E 028°26'0 0.0
2017-Nov-25 01:58N 59°42' E 028°26'0 0.0
2017-Nov-25 01:25N 59°42' E 028°26'0 0.0
2017-Nov-25 00:46N 59°42' E 028°26'0 0.0
2017-Nov-25 00:28N 59°42' E 028°26'0 0.0
2017-Nov-24 23:58N 59°42' E 028°26'0 0.0
2017-Nov-24 23:28N 59°42' E 028°26'0 0.0
2017-Nov-24 22:58N 59°42' E 028°26'0 0.0
2017-Nov-24 22:28N 59°42' E 028°26'0 0.0
2017-Nov-24 21:43N 59°42' E 028°26'0 0.0
2017-Nov-24 21:19N 59°42' E 028°26'0 0.0
2017-Nov-24 20:49N 59°42' E 028°26'0 0.0
2017-Nov-24 20:22N 59°42' E 028°26'0 0.0
2017-Nov-24 19:52N 59°42' E 028°26'0 0.0
2017-Nov-24 19:19N 59°42' E 028°26'0 0.0
2017-Nov-24 18:52N 59°42' E 028°26'0 0.0
2017-Nov-24 18:22N 59°42' E 028°26'0 0.0
2017-Nov-24 17:52N 59°42' E 028°26'0 0.0
2017-Nov-24 17:25N 59°42' E 028°26'0 0.0
2017-Nov-24 16:55N 59°42' E 028°26'0 0.0
2017-Nov-24 16:25N 59°42' E 028°26'0 0.0
2017-Nov-24 15:55N 59°42' E 028°26'0 0.0
2017-Nov-24 15:22N 59°42' E 028°26'0 0.0
2017-Nov-24 14:55N 59°42' E 028°26'0 0.0
2017-Nov-24 14:28N 59°42' E 028°26'0 0.0
2017-Nov-24 13:58N 59°42' E 028°26'0 0.0
2017-Nov-24 13:25N 59°42' E 028°26'0 0.0
2017-Nov-24 12:58N 59°42' E 028°26'0 0.0
2017-Nov-24 12:28N 59°42' E 028°26'0 0.0
2017-Nov-24 12:00N 59°42' E 028°26'1 1.4
2017-Nov-24 11:30N 59°42' E 028°24'3 5.5
2017-Nov-24 11:00N 59°44' E 028°24'510.5
2017-Nov-24 10:30N 59°50' E 028°25'510.7
2017-Nov-24 10:01N 59°54' E 028°32'3 5.2
2017-Nov-24 09:30N 59°54' E 028°37'0 0.0
2017-Nov-24 08:58N 59°54' E 028°37'0 0.1
2017-Nov-24 08:28N 59°54' E 028°37'0 0.1
2017-Nov-24 07:58N 59°54' E 028°37'0 0.1
2017-Nov-24 07:28N 59°54' E 028°37'0 0.1
2017-Nov-24 06:58N 59°54' E 028°37'0 0.1
2017-Nov-24 06:28N 59°54' E 028°37'0 0.0
2017-Nov-24 05:58N 59°54' E 028°37'0 0.1
2017-Nov-24 05:28N 59°54' E 028°37'0 0.0
2017-Nov-24 04:49N 59°54' E 028°37'0 0.0
2017-Nov-24 04:28N 59°54' E 028°37'0 0.1
2017-Nov-24 03:49N 59°54' E 028°37'0 0.1
2017-Nov-24 03:22N 59°54' E 028°37'0 0.0
2017-Nov-24 02:52N 59°54' E 028°37'0 0.1
2017-Nov-24 02:27N 59°54' E 028°37'0 0.0
2017-Nov-24 01:52N 59°54' E 028°37'0 0.1
2017-Nov-24 01:22N 59°54' E 028°37'0 0.0
2017-Nov-24 00:55N 59°54' E 028°37'0 0.0
2017-Nov-24 00:25N 59°54' E 028°37'0 0.0
2017-Nov-23 23:52N 59°54' E 028°37'0 0.1
2017-Nov-23 23:22N 59°54' E 028°37'0 0.1
2017-Nov-23 22:55N 59°54' E 028°37'0 0.0
2017-Nov-23 22:25N 59°54' E 028°37'0 0.0
2017-Nov-23 21:55N 59°54' E 028°37'0 0.1
2017-Nov-23 21:28N 59°54' E 028°37'0 0.0
2017-Nov-23 20:55N 59°54' E 028°37'0 0.1
2017-Nov-23 20:28N 59°54' E 028°37'0 0.0
2017-Nov-23 19:58N 59°54' E 028°37'0 0.1
2017-Nov-23 19:28N 59°54' E 028°37'0 0.1
2017-Nov-23 18:58N 59°54' E 028°37'0 0.1
2017-Nov-23 18:28N 59°54' E 028°37'0 0.0
2017-Nov-23 17:55N 59°54' E 028°37'0 0.1
2017-Nov-23 17:28N 59°54' E 028°37'0 0.0
2017-Nov-23 16:58N 59°54' E 028°37'0 0.0
2017-Nov-23 16:16N 59°54' E 028°37'0 0.0
2017-Nov-23 15:58N 59°54' E 028°37'0 0.1
2017-Nov-23 15:28N 59°54' E 028°37'0 0.0
2017-Nov-23 14:58N 59°54' E 028°37'0 0.0
2017-Nov-23 14:16N 59°54' E 028°37'0 0.0
2017-Nov-23 13:49N 59°54' E 028°37'0 0.0
2017-Nov-23 13:19N 59°54' E 028°37'0 0.0
2017-Nov-23 13:01N 59°54' E 028°37'0 0.0
2017-Nov-23 12:31N 59°54' E 028°37'0 0.0
2017-Nov-23 11:58N 59°54' E 028°37'0 0.0
2017-Nov-23 11:21N 59°54' E 028°37'0 0.0
2017-Nov-23 10:52N 59°54' E 028°37'0 0.1
2017-Nov-23 10:28N 59°54' E 028°37'0 0.0
2017-Nov-23 09:52N 59°54' E 028°37'0 0.0
2017-Nov-23 09:22N 59°54' E 028°37'0 0.0
2017-Nov-23 08:55N 59°54' E 028°37'0 0.0
2017-Nov-23 08:25N 59°54' E 028°37'0 0.0
2017-Nov-23 07:55N 59°54' E 028°37'0 0.0
2017-Nov-23 07:25N 59°54' E 028°37'0 0.0
2017-Nov-23 06:55N 59°54' E 028°37'0 0.0
2017-Nov-23 06:25N 59°54' E 028°37'0 0.0
2017-Nov-23 05:58N 59°54' E 028°37'0 0.0
2017-Nov-23 05:25N 59°54' E 028°37'0 0.0
2017-Nov-23 04:57N 59°54' E 028°37'0 0.0
2017-Nov-23 04:30N 59°54' E 028°37'0 0.0
2017-Nov-23 03:58N 59°54' E 028°37'0 0.0
2017-Nov-23 03:25N 59°54' E 028°37'  

Dump ship's entire track history